sensor_id;sensor_type;location;lat;lon;timestamp;pressure;altitude;pressure_sealevel;temperature
34807;BMP180;18310;55.586;12.286;2023-02-13T00:02:24;103357.00;;;16.30
34807;BMP180;18310;55.586;12.286;2023-02-13T00:05:28;103356.00;;;16.30
34807;BMP180;18310;55.586;12.286;2023-02-13T00:08:32;103356.00;;;16.30
34807;BMP180;18310;55.586;12.286;2023-02-13T00:11:35;103355.00;;;16.30
34807;BMP180;18310;55.586;12.286;2023-02-13T00:14:39;103360.00;;;16.20
34807;BMP180;18310;55.586;12.286;2023-02-13T00:17:42;103354.00;;;16.30
34807;BMP180;18310;55.586;12.286;2023-02-13T00:20:59;103357.00;;;16.40
34807;BMP180;18310;55.586;12.286;2023-02-13T00:24:04;103348.00;;;16.40
34807;BMP180;18310;55.586;12.286;2023-02-13T00:27:07;103347.00;;;16.40
34807;BMP180;18310;55.586;12.286;2023-02-13T00:30:11;103355.00;;;16.40
34807;BMP180;18310;55.586;12.286;2023-02-13T00:33:15;103347.00;;;16.40
34807;BMP180;18310;55.586;12.286;2023-02-13T00:36:21;103344.00;;;16.50
34807;BMP180;18310;55.586;12.286;2023-02-13T00:39:25;103348.00;;;16.60
34807;BMP180;18310;55.586;12.286;2023-02-13T00:42:28;103348.00;;;16.60
34807;BMP180;18310;55.586;12.286;2023-02-13T00:45:31;103339.00;;;16.60
34807;BMP180;18310;55.586;12.286;2023-02-13T00:48:35;103349.00;;;16.60
34807;BMP180;18310;55.586;12.286;2023-02-13T00:51:40;103345.00;;;16.60
34807;BMP180;18310;55.586;12.286;2023-02-13T00:54:43;103344.00;;;16.60
34807;BMP180;18310;55.586;12.286;2023-02-13T00:57:48;103341.00;;;16.60
34807;BMP180;18310;55.586;12.286;2023-02-13T01:00:52;103348.00;;;16.60
34807;BMP180;18310;55.586;12.286;2023-02-13T01:03:55;103342.00;;;16.60
34807;BMP180;18310;55.586;12.286;2023-02-13T01:07:00;103344.00;;;16.60
34807;BMP180;18310;55.586;12.286;2023-02-13T01:10:04;103341.00;;;16.60
34807;BMP180;18310;55.586;12.286;2023-02-13T01:13:08;103335.00;;;16.60
34807;BMP180;18310;55.586;12.286;2023-02-13T01:16:12;103344.00;;;16.60
34807;BMP180;18310;55.586;12.286;2023-02-13T01:19:17;103336.00;;;16.60
34807;BMP180;18310;55.586;12.286;2023-02-13T01:22:22;103340.00;;;16.60
34807;BMP180;18310;55.586;12.286;2023-02-13T01:25:25;103343.00;;;16.50
34807;BMP180;18310;55.586;12.286;2023-02-13T01:28:29;103346.00;;;16.60
34807;BMP180;18310;55.586;12.286;2023-02-13T01:31:32;103334.00;;;16.50
34807;BMP180;18310;55.586;12.286;2023-02-13T01:34:35;103340.00;;;16.50
34807;BMP180;18310;55.586;12.286;2023-02-13T01:37:40;103331.00;;;16.50
34807;BMP180;18310;55.586;12.286;2023-02-13T01:40:45;103331.00;;;16.50
34807;BMP180;18310;55.586;12.286;2023-02-13T01:43:52;103328.00;;;16.50
34807;BMP180;18310;55.586;12.286;2023-02-13T01:46:56;103332.00;;;16.50
34807;BMP180;18310;55.586;12.286;2023-02-13T01:50:07;103324.00;;;16.50
34807;BMP180;18310;55.586;12.286;2023-02-13T01:53:18;103324.00;;;16.50
34807;BMP180;18310;55.586;12.286;2023-02-13T01:56:27;103317.00;;;16.40
34807;BMP180;18310;55.586;12.286;2023-02-13T01:59:38;103315.00;;;16.40
34807;BMP180;18310;55.586;12.286;2023-02-13T02:02:47;103312.00;;;16.30
34807;BMP180;18310;55.586;12.286;2023-02-13T02:05:54;103312.00;;;16.30
34807;BMP180;18310;55.586;12.286;2023-02-13T02:09:05;103303.00;;;16.30
34807;BMP180;18310;55.586;12.286;2023-02-13T02:12:20;103308.00;;;16.30
34807;BMP180;18310;55.586;12.286;2023-02-13T02:15:25;103317.00;;;16.20
34807;BMP180;18310;55.586;12.286;2023-02-13T02:18:29;103318.00;;;16.20
34807;BMP180;18310;55.586;12.286;2023-02-13T02:22:18;103309.00;;;16.20
34807;BMP180;18310;55.586;12.286;2023-02-13T02:25:55;103302.00;;;16.10
34807;BMP180;18310;55.586;12.286;2023-02-13T02:29:28;103301.00;;;16.10
34807;BMP180;18310;55.586;12.286;2023-02-13T02:32:52;103306.00;;;16.10
34807;BMP180;18310;55.586;12.286;2023-02-13T02:36:18;103297.00;;;16.00
34807;BMP180;18310;55.586;12.286;2023-02-13T02:39:35;103298.00;;;16.00
34807;BMP180;18310;55.586;12.286;2023-02-13T02:42:59;103304.00;;;15.90
34807;BMP180;18310;55.586;12.286;2023-02-13T02:46:19;103313.00;;;16.00
34807;BMP180;18310;55.586;12.286;2023-02-13T02:49:27;103317.00;;;16.00
34807;BMP180;18310;55.586;12.286;2023-02-13T02:53:05;103306.00;;;16.00
34807;BMP180;18310;55.586;12.286;2023-02-13T02:56:19;103325.00;;;16.00
34807;BMP180;18310;55.586;12.286;2023-02-13T02:59:27;103319.00;;;16.00
34807;BMP180;18310;55.586;12.286;2023-02-13T03:02:48;103309.00;;;15.90
34807;BMP180;18310;55.586;12.286;2023-02-13T03:06:16;103308.00;;;16.00
34807;BMP180;18310;55.586;12.286;2023-02-13T03:09:26;103320.00;;;15.90
34807;BMP180;18310;55.586;12.286;2023-02-13T03:12:53;103319.00;;;15.90
34807;BMP180;18310;55.586;12.286;2023-02-13T03:16:19;103319.00;;;15.80
34807;BMP180;18310;55.586;12.286;2023-02-13T03:20:02;103312.00;;;15.80
34807;BMP180;18310;55.586;12.286;2023-02-13T03:23:39;103312.00;;;15.80
34807;BMP180;18310;55.586;12.286;2023-02-13T03:26:53;103323.00;;;15.70
34807;BMP180;18310;55.586;12.286;2023-02-13T03:30:12;103311.00;;;15.70
34807;BMP180;18310;55.586;12.286;2023-02-13T03:33:31;103313.00;;;15.60
34807;BMP180;18310;55.586;12.286;2023-02-13T03:36:46;103316.00;;;15.60
34807;BMP180;18310;55.586;12.286;2023-02-13T03:43:18;103325.00;;;15.50
34807;BMP180;18310;55.586;12.286;2023-02-13T03:46:23;103321.00;;;15.60
34807;BMP180;18310;55.586;12.286;2023-02-13T03:49:33;103322.00;;;15.50
34807;BMP180;18310;55.586;12.286;2023-02-13T03:53:01;103325.00;;;15.50
34807;BMP180;18310;55.586;12.286;2023-02-13T03:56:10;103323.00;;;15.50
34807;BMP180;18310;55.586;12.286;2023-02-13T03:59:35;103324.00;;;15.40
34807;BMP180;18310;55.586;12.286;2023-02-13T04:02:50;103325.00;;;15.40
34807;BMP180;18310;55.586;12.286;2023-02-13T04:06:06;103340.00;;;15.40
34807;BMP180;18310;55.586;12.286;2023-02-13T04:09:10;103334.00;;;15.30
34807;BMP180;18310;55.586;12.286;2023-02-13T04:12:19;103337.00;;;15.30
34807;BMP180;18310;55.586;12.286;2023-02-13T04:15:30;103342.00;;;15.30
34807;BMP180;18310;55.586;12.286;2023-02-13T04:18:35;103349.00;;;15.30
34807;BMP180;18310;55.586;12.286;2023-02-13T04:21:40;103338.00;;;15.40
34807;BMP180;18310;55.586;12.286;2023-02-13T04:24:43;103339.00;;;15.40
34807;BMP180;18310;55.586;12.286;2023-02-13T04:27:47;103346.00;;;15.40
34807;BMP180;18310;55.586;12.286;2023-02-13T04:30:50;103341.00;;;15.50
34807;BMP180;18310;55.586;12.286;2023-02-13T04:33:53;103338.00;;;15.50
34807;BMP180;18310;55.586;12.286;2023-02-13T04:36:56;103338.00;;;15.50
34807;BMP180;18310;55.586;12.286;2023-02-13T04:40:00;103340.00;;;15.60
34807;BMP180;18310;55.586;12.286;2023-02-13T04:43:05;103337.00;;;15.60
34807;BMP180;18310;55.586;12.286;2023-02-13T04:46:08;103339.00;;;15.60
34807;BMP180;18310;55.586;12.286;2023-02-13T04:49:11;103323.00;;;15.70
34807;BMP180;18310;55.586;12.286;2023-02-13T04:52:15;103325.00;;;15.70
34807;BMP180;18310;55.586;12.286;2023-02-13T04:55:18;103323.00;;;15.70
34807;BMP180;18310;55.586;12.286;2023-02-13T04:58:22;103318.00;;;15.80
34807;BMP180;18310;55.586;12.286;2023-02-13T05:01:25;103318.00;;;15.80
34807;BMP180;18310;55.586;12.286;2023-02-13T05:04:28;103331.00;;;15.80
34807;BMP180;18310;55.586;12.286;2023-02-13T05:07:31;103329.00;;;15.90
34807;BMP180;18310;55.586;12.286;2023-02-13T05:10:35;103331.00;;;15.90
34807;BMP180;18310;55.586;12.286;2023-02-13T05:13:40;103325.00;;;15.90
34807;BMP180;18310;55.586;12.286;2023-02-13T05:16:43;103333.00;;;15.90
34807;BMP180;18310;55.586;12.286;2023-02-13T05:19:46;103338.00;;;15.90
34807;BMP180;18310;55.586;12.286;2023-02-13T05:22:51;103335.00;;;15.90
34807;BMP180;18310;55.586;12.286;2023-02-13T05:26:13;103336.00;;;15.90
34807;BMP180;18310;55.586;12.286;2023-02-13T05:29:17;103323.00;;;15.90
34807;BMP180;18310;55.586;12.286;2023-02-13T05:32:20;103336.00;;;15.90
34807;BMP180;18310;55.586;12.286;2023-02-13T05:35:23;103331.00;;;16.00
34807;BMP180;18310;55.586;12.286;2023-02-13T05:38:26;103332.00;;;16.00
34807;BMP180;18310;55.586;12.286;2023-02-13T05:41:29;103331.00;;;16.00
34807;BMP180;18310;55.586;12.286;2023-02-13T05:44:34;103339.00;;;16.00
34807;BMP180;18310;55.586;12.286;2023-02-13T05:47:37;103345.00;;;16.00
34807;BMP180;18310;55.586;12.286;2023-02-13T05:50:40;103340.00;;;16.00
34807;BMP180;18310;55.586;12.286;2023-02-13T05:53:43;103338.00;;;16.00
34807;BMP180;18310;55.586;12.286;2023-02-13T05:56:46;103353.00;;;16.00
34807;BMP180;18310;55.586;12.286;2023-02-13T05:59:50;103352.00;;;16.10
34807;BMP180;18310;55.586;12.286;2023-02-13T06:02:53;103345.00;;;16.10
34807;BMP180;18310;55.586;12.286;2023-02-13T06:05:57;103358.00;;;16.10
34807;BMP180;18310;55.586;12.286;2023-02-13T06:09:00;103354.00;;;16.20
34807;BMP180;18310;55.586;12.286;2023-02-13T06:12:04;103360.00;;;16.10
34807;BMP180;18310;55.586;12.286;2023-02-13T06:15:09;103356.00;;;16.20
34807;BMP180;18310;55.586;12.286;2023-02-13T06:18:12;103354.00;;;16.20
34807;BMP180;18310;55.586;12.286;2023-02-13T06:21:15;103361.00;;;16.20
34807;BMP180;18310;55.586;12.286;2023-02-13T06:24:18;103360.00;;;16.20
34807;BMP180;18310;55.586;12.286;2023-02-13T06:27:21;103365.00;;;16.20
34807;BMP180;18310;55.586;12.286;2023-02-13T06:30:26;103359.00;;;16.20
34807;BMP180;18310;55.586;12.286;2023-02-13T06:33:29;103372.00;;;16.20
34807;BMP180;18310;55.586;12.286;2023-02-13T06:36:32;103377.00;;;16.20
34807;BMP180;18310;55.586;12.286;2023-02-13T06:39:35;103371.00;;;16.20
34807;BMP180;18310;55.586;12.286;2023-02-13T06:42:39;103375.00;;;16.20
34807;BMP180;18310;55.586;12.286;2023-02-13T06:45:44;103376.00;;;16.20
34807;BMP180;18310;55.586;12.286;2023-02-13T06:48:48;103378.00;;;16.20
34807;BMP180;18310;55.586;12.286;2023-02-13T06:51:51;103372.00;;;16.30
34807;BMP180;18310;55.586;12.286;2023-02-13T06:54:54;103372.00;;;16.20
34807;BMP180;18310;55.586;12.286;2023-02-13T06:57:57;103375.00;;;16.20
34807;BMP180;18310;55.586;12.286;2023-02-13T07:01:02;103376.00;;;16.20
34807;BMP180;18310;55.586;12.286;2023-02-13T07:04:05;103377.00;;;16.10
34807;BMP180;18310;55.586;12.286;2023-02-13T07:07:08;103376.00;;;16.10
34807;BMP180;18310;55.586;12.286;2023-02-13T07:10:13;103379.00;;;16.10
34807;BMP180;18310;55.586;12.286;2023-02-13T07:13:16;103385.00;;;16.20
34807;BMP180;18310;55.586;12.286;2023-02-13T07:16:20;103379.00;;;16.20
34807;BMP180;18310;55.586;12.286;2023-02-13T07:19:24;103377.00;;;16.20
34807;BMP180;18310;55.586;12.286;2023-02-13T07:22:27;103381.00;;;16.20
34807;BMP180;18310;55.586;12.286;2023-02-13T07:25:30;103385.00;;;16.20
34807;BMP180;18310;55.586;12.286;2023-02-13T07:28:34;103377.00;;;16.20
34807;BMP180;18310;55.586;12.286;2023-02-13T07:31:38;103385.00;;;16.20
34807;BMP180;18310;55.586;12.286;2023-02-13T07:34:41;103381.00;;;16.20
34807;BMP180;18310;55.586;12.286;2023-02-13T07:38:01;103380.00;;;16.30
34807;BMP180;18310;55.586;12.286;2023-02-13T07:41:05;103382.00;;;16.30
34807;BMP180;18310;55.586;12.286;2023-02-13T07:44:09;103371.00;;;16.30
34807;BMP180;18310;55.586;12.286;2023-02-13T07:47:13;103373.00;;;16.30
34807;BMP180;18310;55.586;12.286;2023-02-13T07:50:20;103369.00;;;16.30
34807;BMP180;18310;55.586;12.286;2023-02-13T07:53:23;103366.00;;;16.40
34807;BMP180;18310;55.586;12.286;2023-02-13T07:56:26;103362.00;;;16.40
34807;BMP180;18310;55.586;12.286;2023-02-13T07:59:30;103375.00;;;16.40
34807;BMP180;18310;55.586;12.286;2023-02-13T08:02:34;103374.00;;;16.40
34807;BMP180;18310;55.586;12.286;2023-02-13T08:05:37;103375.00;;;16.40
34807;BMP180;18310;55.586;12.286;2023-02-13T08:08:41;103377.00;;;16.30
34807;BMP180;18310;55.586;12.286;2023-02-13T08:11:44;103368.00;;;15.90
34807;BMP180;18310;55.586;12.286;2023-02-13T08:14:55;103374.00;;;16.30
34807;BMP180;18310;55.586;12.286;2023-02-13T08:18:00;103373.00;;;16.40
34807;BMP180;18310;55.586;12.286;2023-02-13T08:21:03;103378.00;;;16.40
34807;BMP180;18310;55.586;12.286;2023-02-13T08:24:07;103377.00;;;16.40
34807;BMP180;18310;55.586;12.286;2023-02-13T08:27:12;103376.00;;;16.30
34807;BMP180;18310;55.586;12.286;2023-02-13T08:30:16;103380.00;;;16.10
34807;BMP180;18310;55.586;12.286;2023-02-13T08:33:21;103372.00;;;15.60
34807;BMP180;18310;55.586;12.286;2023-02-13T08:36:24;103350.00;;;15.40
34807;BMP180;18310;55.586;12.286;2023-02-13T08:39:27;103343.00;;;15.30
34807;BMP180;18310;55.586;12.286;2023-02-13T08:42:31;103356.00;;;15.20
34807;BMP180;18310;55.586;12.286;2023-02-13T08:45:35;103351.00;;;15.20
34807;BMP180;18310;55.586;12.286;2023-02-13T08:48:40;103364.00;;;15.30
34807;BMP180;18310;55.586;12.286;2023-02-13T08:51:43;103371.00;;;15.50
34807;BMP180;18310;55.586;12.286;2023-02-13T08:54:46;103372.00;;;16.10
34807;BMP180;18310;55.586;12.286;2023-02-13T08:57:49;103356.00;;;16.30
34807;BMP180;18310;55.586;12.286;2023-02-13T09:00:53;103360.00;;;16.20
34807;BMP180;18310;55.586;12.286;2023-02-13T09:03:58;103357.00;;;15.90
34807;BMP180;18310;55.586;12.286;2023-02-13T09:07:01;103348.00;;;16.00
34807;BMP180;18310;55.586;12.286;2023-02-13T09:10:07;103350.00;;;16.20
34807;BMP180;18310;55.586;12.286;2023-02-13T09:13:10;103347.00;;;16.20
34807;BMP180;18310;55.586;12.286;2023-02-13T09:16:14;103347.00;;;16.50
34807;BMP180;18310;55.586;12.286;2023-02-13T09:19:19;103347.00;;;16.70
34807;BMP180;18310;55.586;12.286;2023-02-13T09:22:22;103351.00;;;16.80
34807;BMP180;18310;55.586;12.286;2023-02-13T09:25:25;103352.00;;;16.90
34807;BMP180;18310;55.586;12.286;2023-02-13T09:28:29;103339.00;;;17.00
34807;BMP180;18310;55.586;12.286;2023-02-13T09:31:33;103360.00;;;17.00
34807;BMP180;18310;55.586;12.286;2023-02-13T09:34:38;103344.00;;;16.60
34807;BMP180;18310;55.586;12.286;2023-02-13T09:37:42;103345.00;;;16.50
34807;BMP180;18310;55.586;12.286;2023-02-13T09:40:49;103354.00;;;16.40
34807;BMP180;18310;55.586;12.286;2023-02-13T09:43:55;103362.00;;;16.40
34807;BMP180;18310;55.586;12.286;2023-02-13T09:47:05;103361.00;;;16.40
34807;BMP180;18310;55.586;12.286;2023-02-13T09:50:15;103360.00;;;16.40
34807;BMP180;18310;55.586;12.286;2023-02-13T09:53:23;103364.00;;;16.40
34807;BMP180;18310;55.586;12.286;2023-02-13T09:56:39;103375.00;;;16.40
34807;BMP180;18310;55.586;12.286;2023-02-13T09:59:50;103374.00;;;16.50
34807;BMP180;18310;55.586;12.286;2023-02-13T10:03:18;103363.00;;;16.60
34807;BMP180;18310;55.586;12.286;2023-02-13T10:06:30;103376.00;;;16.80
34807;BMP180;18310;55.586;12.286;2023-02-13T10:09:45;103386.00;;;17.20
34807;BMP180;18310;55.586;12.286;2023-02-13T10:13:02;103377.00;;;17.30
34807;BMP180;18310;55.586;12.286;2023-02-13T10:16:12;103392.00;;;17.40
34807;BMP180;18310;55.586;12.286;2023-02-13T10:19:31;103391.00;;;17.50
34807;BMP180;18310;55.586;12.286;2023-02-13T10:22:42;103394.00;;;17.40
34807;BMP180;18310;55.586;12.286;2023-02-13T10:25:51;103409.00;;;17.20
34807;BMP180;18310;55.586;12.286;2023-02-13T10:29:02;103392.00;;;17.10
34807;BMP180;18310;55.586;12.286;2023-02-13T10:32:30;103394.00;;;17.10
34807;BMP180;18310;55.586;12.286;2023-02-13T10:35:38;103400.00;;;17.00
34807;BMP180;18310;55.586;12.286;2023-02-13T10:38:45;103417.00;;;17.00
34807;BMP180;18310;55.586;12.286;2023-02-13T10:41:58;103399.00;;;17.00
34807;BMP180;18310;55.586;12.286;2023-02-13T10:45:17;103403.00;;;17.00
34807;BMP180;18310;55.586;12.286;2023-02-13T10:48:41;103416.00;;;17.00
34807;BMP180;18310;55.586;12.286;2023-02-13T10:51:52;103415.00;;;17.00
34807;BMP180;18310;55.586;12.286;2023-02-13T10:55:14;103425.00;;;17.00
34807;BMP180;18310;55.586;12.286;2023-02-13T10:58:28;103422.00;;;17.00
34807;BMP180;18310;55.586;12.286;2023-02-13T11:01:40;103420.00;;;17.00
34807;BMP180;18310;55.586;12.286;2023-02-13T11:04:47;103427.00;;;17.20
34807;BMP180;18310;55.586;12.286;2023-02-13T11:07:51;103412.00;;;17.50
34807;BMP180;18310;55.586;12.286;2023-02-13T11:10:56;103417.00;;;17.30
34807;BMP180;18310;55.586;12.286;2023-02-13T11:14:12;103426.00;;;17.20
34807;BMP180;18310;55.586;12.286;2023-02-13T11:17:17;103426.00;;;17.10
34807;BMP180;18310;55.586;12.286;2023-02-13T11:20:33;103432.00;;;17.10
34807;BMP180;18310;55.586;12.286;2023-02-13T11:23:41;103419.00;;;17.10
34807;BMP180;18310;55.586;12.286;2023-02-13T11:26:50;103432.00;;;17.10
34807;BMP180;18310;55.586;12.286;2023-02-13T11:29:56;103439.00;;;17.00
34807;BMP180;18310;55.586;12.286;2023-02-13T11:33:03;103442.00;;;17.20
34807;BMP180;18310;55.586;12.286;2023-02-13T11:36:12;103433.00;;;17.70
34807;BMP180;18310;55.586;12.286;2023-02-13T11:39:19;103420.00;;;17.90
34807;BMP180;18310;55.586;12.286;2023-02-13T11:42:28;103417.00;;;18.00
34807;BMP180;18310;55.586;12.286;2023-02-13T11:45:32;103416.00;;;18.10
34807;BMP180;18310;55.586;12.286;2023-02-13T11:48:36;103404.00;;;18.10
34807;BMP180;18310;55.586;12.286;2023-02-13T11:51:43;103425.00;;;18.10
34807;BMP180;18310;55.586;12.286;2023-02-13T11:54:56;103417.00;;;18.20
34807;BMP180;18310;55.586;12.286;2023-02-13T11:58:04;103409.00;;;18.20
34807;BMP180;18310;55.586;12.286;2023-02-13T12:01:26;103408.00;;;18.10
34807;BMP180;18310;55.586;12.286;2023-02-13T12:04:30;103408.00;;;17.90
34807;BMP180;18310;55.586;12.286;2023-02-13T12:07:33;103410.00;;;17.60
34807;BMP180;18310;55.586;12.286;2023-02-13T12:10:37;103399.00;;;17.70
34807;BMP180;18310;55.586;12.286;2023-02-13T12:13:42;103404.00;;;18.00
34807;BMP180;18310;55.586;12.286;2023-02-13T12:16:50;103395.00;;;18.00
34807;BMP180;18310;55.586;12.286;2023-02-13T12:19:54;103387.00;;;17.80
34807;BMP180;18310;55.586;12.286;2023-02-13T12:23:05;103391.00;;;18.10
34807;BMP180;18310;55.586;12.286;2023-02-13T12:26:31;103393.00;;;18.20
34807;BMP180;18310;55.586;12.286;2023-02-13T12:29:58;103391.00;;;18.20
34807;BMP180;18310;55.586;12.286;2023-02-13T12:33:16;103398.00;;;18.00
34807;BMP180;18310;55.586;12.286;2023-02-13T12:36:23;103388.00;;;17.70
34807;BMP180;18310;55.586;12.286;2023-02-13T12:39:33;103384.00;;;17.70
34807;BMP180;18310;55.586;12.286;2023-02-13T12:42:47;103390.00;;;18.10
34807;BMP180;18310;55.586;12.286;2023-02-13T12:45:59;103397.00;;;18.20
34807;BMP180;18310;55.586;12.286;2023-02-13T12:49:24;103401.00;;;18.30
34807;BMP180;18310;55.586;12.286;2023-02-13T12:52:45;103409.00;;;18.30
34807;BMP180;18310;55.586;12.286;2023-02-13T12:56:18;103402.00;;;18.40
34807;BMP180;18310;55.586;12.286;2023-02-13T12:59:38;103429.00;;;18.40
34807;BMP180;18310;55.586;12.286;2023-02-13T13:03:06;103417.00;;;18.40
34807;BMP180;18310;55.586;12.286;2023-02-13T13:06:29;103410.00;;;18.40
34807;BMP180;18310;55.586;12.286;2023-02-13T13:10:02;103432.00;;;18.40
34807;BMP180;18310;55.586;12.286;2023-02-13T13:13:26;103423.00;;;18.40
34807;BMP180;18310;55.586;12.286;2023-02-13T13:16:43;103425.00;;;18.40
34807;BMP180;18310;55.586;12.286;2023-02-13T13:20:00;103431.00;;;18.30
34807;BMP180;18310;55.586;12.286;2023-02-13T13:23:12;103421.00;;;18.30
34807;BMP180;18310;55.586;12.286;2023-02-13T13:26:24;103420.00;;;18.20
34807;BMP180;18310;55.586;12.286;2023-02-13T13:29:41;103412.00;;;18.20
34807;BMP180;18310;55.586;12.286;2023-02-13T13:32:52;103419.00;;;18.20
34807;BMP180;18310;55.586;12.286;2023-02-13T13:36:08;103426.00;;;18.20
34807;BMP180;18310;55.586;12.286;2023-02-13T13:39:32;103402.00;;;18.20
34807;BMP180;18310;55.586;12.286;2023-02-13T13:42:41;103395.00;;;18.10
34807;BMP180;18310;55.586;12.286;2023-02-13T13:46:01;103396.00;;;17.80
34807;BMP180;18310;55.586;12.286;2023-02-13T13:49:34;103424.00;;;18.00
34807;BMP180;18310;55.586;12.286;2023-02-13T13:53:04;103399.00;;;17.90
34807;BMP180;18310;55.586;12.286;2023-02-13T13:56:07;103401.00;;;17.60
34807;BMP180;18310;55.586;12.286;2023-02-13T13:59:16;103413.00;;;17.90
34807;BMP180;18310;55.586;12.286;2023-02-13T14:02:41;103393.00;;;18.00
34807;BMP180;18310;55.586;12.286;2023-02-13T14:05:58;103402.00;;;17.80
34807;BMP180;18310;55.586;12.286;2023-02-13T14:09:06;103390.00;;;17.60
34807;BMP180;18310;55.586;12.286;2023-02-13T14:12:43;103392.00;;;17.80
34807;BMP180;18310;55.586;12.286;2023-02-13T14:15:51;103392.00;;;17.70
34807;BMP180;18310;55.586;12.286;2023-02-13T14:18:56;103379.00;;;17.50
34807;BMP180;18310;55.586;12.286;2023-02-13T14:22:25;103386.00;;;17.50
34807;BMP180;18310;55.586;12.286;2023-02-13T14:25:30;103377.00;;;17.30
34807;BMP180;18310;55.586;12.286;2023-02-13T14:28:34;103376.00;;;17.40
34807;BMP180;18310;55.586;12.286;2023-02-13T14:31:41;103378.00;;;17.50
34807;BMP180;18310;55.586;12.286;2023-02-13T14:34:54;103371.00;;;17.50
34807;BMP180;18310;55.586;12.286;2023-02-13T14:37:59;103374.00;;;17.30
34807;BMP180;18310;55.586;12.286;2023-02-13T14:41:04;103378.00;;;17.10
34807;BMP180;18310;55.586;12.286;2023-02-13T14:44:17;103377.00;;;17.30
34807;BMP180;18310;55.586;12.286;2023-02-13T14:47:27;103376.00;;;17.40
34807;BMP180;18310;55.586;12.286;2023-02-13T14:50:43;103383.00;;;17.40
34807;BMP180;18310;55.586;12.286;2023-02-13T14:53:51;103381.00;;;17.30
34807;BMP180;18310;55.586;12.286;2023-02-13T14:57:06;103382.00;;;17.00
34807;BMP180;18310;55.586;12.286;2023-02-13T15:00:22;103383.00;;;17.00
34807;BMP180;18310;55.586;12.286;2023-02-13T15:03:30;103369.00;;;16.70
34807;BMP180;18310;55.586;12.286;2023-02-13T15:06:39;103376.00;;;16.70
34807;BMP180;18310;55.586;12.286;2023-02-13T15:09:49;103373.00;;;17.10
34807;BMP180;18310;55.586;12.286;2023-02-13T15:13:00;103377.00;;;17.20
34807;BMP180;18310;55.586;12.286;2023-02-13T15:16:06;103376.00;;;17.10
34807;BMP180;18310;55.586;12.286;2023-02-13T15:19:15;103381.00;;;16.70
34807;BMP180;18310;55.586;12.286;2023-02-13T15:22:27;103388.00;;;16.70
34807;BMP180;18310;55.586;12.286;2023-02-13T15:25:35;103378.00;;;16.80
34807;BMP180;18310;55.586;12.286;2023-02-13T15:28:40;103375.00;;;16.50
34807;BMP180;18310;55.586;12.286;2023-02-13T15:31:43;103384.00;;;16.60
34807;BMP180;18310;55.586;12.286;2023-02-13T15:34:47;103388.00;;;17.00
34807;BMP180;18310;55.586;12.286;2023-02-13T15:37:51;103394.00;;;16.60
34807;BMP180;18310;55.586;12.286;2023-02-13T15:40:59;103398.00;;;16.40
34807;BMP180;18310;55.586;12.286;2023-02-13T15:44:05;103384.00;;;16.40
34807;BMP180;18310;55.586;12.286;2023-02-13T15:47:17;103393.00;;;16.30
34807;BMP180;18310;55.586;12.286;2023-02-13T15:50:28;103394.00;;;16.50
34807;BMP180;18310;55.586;12.286;2023-02-13T15:53:31;103400.00;;;16.70
34807;BMP180;18310;55.586;12.286;2023-02-13T15:56:36;103415.00;;;16.60
34807;BMP180;18310;55.586;12.286;2023-02-13T15:59:41;103404.00;;;16.50
34807;BMP180;18310;55.586;12.286;2023-02-13T16:02:46;103409.00;;;16.40
34807;BMP180;18310;55.586;12.286;2023-02-13T16:05:50;103413.00;;;16.50
34807;BMP180;18310;55.586;12.286;2023-02-13T16:08:54;103414.00;;;16.80
34807;BMP180;18310;55.586;12.286;2023-02-13T16:12:18;103399.00;;;16.60
34807;BMP180;18310;55.586;12.286;2023-02-13T16:15:26;103416.00;;;16.40
34807;BMP180;18310;55.586;12.286;2023-02-13T16:18:30;103412.00;;;16.50
34807;BMP180;18310;55.586;12.286;2023-02-13T16:21:34;103419.00;;;16.80
34807;BMP180;18310;55.586;12.286;2023-02-13T16:24:37;103424.00;;;16.90
34807;BMP180;18310;55.586;12.286;2023-02-13T16:27:43;103416.00;;;16.90
34807;BMP180;18310;55.586;12.286;2023-02-13T16:30:54;103422.00;;;16.70
34807;BMP180;18310;55.586;12.286;2023-02-13T16:34:13;103417.00;;;16.80
34807;BMP180;18310;55.586;12.286;2023-02-13T16:37:30;103423.00;;;16.60
34807;BMP180;18310;55.586;12.286;2023-02-13T16:40:38;103427.00;;;16.40
34807;BMP180;18310;55.586;12.286;2023-02-13T16:43:44;103425.00;;;16.30
34807;BMP180;18310;55.586;12.286;2023-02-13T16:46:51;103428.00;;;16.10
34807;BMP180;18310;55.586;12.286;2023-02-13T16:49:56;103444.00;;;16.20
34807;BMP180;18310;55.586;12.286;2023-02-13T16:53:01;103442.00;;;16.30
34807;BMP180;18310;55.586;12.286;2023-02-13T16:56:08;103448.00;;;16.70
34807;BMP180;18310;55.586;12.286;2023-02-13T16:59:24;103455.00;;;16.90
34807;BMP180;18310;55.586;12.286;2023-02-13T17:02:31;103449.00;;;16.90
34807;BMP180;18310;55.586;12.286;2023-02-13T17:05:34;103460.00;;;16.40
34807;BMP180;18310;55.586;12.286;2023-02-13T17:08:38;103462.00;;;16.20
34807;BMP180;18310;55.586;12.286;2023-02-13T17:11:41;103463.00;;;16.10
34807;BMP180;18310;55.586;12.286;2023-02-13T17:14:52;103467.00;;;16.10
34807;BMP180;18310;55.586;12.286;2023-02-13T17:17:57;103472.00;;;16.00
34807;BMP180;18310;55.586;12.286;2023-02-13T17:21:00;103471.00;;;15.90
34807;BMP180;18310;55.586;12.286;2023-02-13T17:24:05;103473.00;;;16.10
34807;BMP180;18310;55.586;12.286;2023-02-13T17:27:09;103472.00;;;16.50
34807;BMP180;18310;55.586;12.286;2023-02-13T17:30:15;103481.00;;;16.40
34807;BMP180;18310;55.586;12.286;2023-02-13T17:33:22;103477.00;;;16.00
34807;BMP180;18310;55.586;12.286;2023-02-13T17:36:26;103482.00;;;15.90
34807;BMP180;18310;55.586;12.286;2023-02-13T17:39:29;103486.00;;;15.70
34807;BMP180;18310;55.586;12.286;2023-02-13T17:42:34;103481.00;;;15.70